Terminal Aerodrome Forecast
Issued by NWS

Home | Current Version | Previous Version | Text Only | Print | Product List | Glossary On
Versions: 1 2 3 4 5 6 7 8 9 10 11 12 13 14 15 16 17 18 19
000
FTUS44 KHGX 231122
TAFUTS
TAF
KUTS 231122Z 2312/2412 00000KT P6SM FEW110 OVC200
     FM231600 04006KT P6SM BKN200
     FM240800 07003KT 4SM BR SCT005=

USA.gov is the U.S. government's official web portal to all federal, state and local government web resources and services.